createdAt,value
2022-10-15T00:01:07.111Z,1.75
2022-10-15T00:02:09.149Z,1.45
2022-10-15T00:03:12.090Z,1.50
2022-10-15T00:04:13.994Z,1.65
2022-10-15T00:05:17.042Z,1.92
2022-10-15T00:06:20.462Z,1.70
2022-10-15T00:07:23.643Z,1.40
2022-10-15T00:08:25.765Z,1.55
2022-10-15T00:09:28.677Z,1.75
2022-10-15T00:10:30.794Z,1.52
2022-10-15T00:11:33.905Z,2.17
2022-10-15T00:12:35.976Z,1.90
2022-10-15T00:13:39.365Z,1.63
2022-10-15T00:14:42.729Z,1.80
2022-10-15T00:15:45.631Z,1.60
2022-10-15T00:16:47.698Z,1.90
2022-10-15T00:17:50.620Z,2.25
2022-10-15T00:18:56.102Z,2.03
2022-10-15T00:19:58.981Z,1.50
2022-10-15T00:21:01.074Z,1.85
2022-10-15T00:22:04.003Z,2.13
2022-10-15T00:23:05.905Z,1.67
2022-10-15T00:24:09.134Z,2.20
2022-10-15T00:25:11.238Z,1.70
2022-10-15T00:26:15.691Z,1.70
2022-10-15T00:27:17.820Z,1.88
2022-10-15T00:28:20.754Z,1.80
2022-10-15T00:29:22.713Z,1.73
2022-10-15T00:30:26.963Z,1.48
2022-10-15T00:31:30.912Z,2.20
2022-10-15T00:32:34.491Z,1.40
2022-10-15T00:33:37.345Z,2.08
2022-10-15T00:34:40.257Z,1.75
2022-10-15T00:35:42.186Z,1.83
2022-10-15T00:36:45.115Z,1.90
2022-10-15T00:37:47.060Z,1.75
2022-10-15T00:38:51.075Z,1.83
2022-10-15T00:39:53.106Z,1.55
2022-10-15T00:40:56.147Z,1.83
2022-10-15T00:41:59.058Z,1.40
2022-10-15T00:43:01.041Z,1.95
2022-10-15T00:44:24.552Z,2.00
2022-10-15T00:45:28.141Z,1.90
2022-10-15T00:46:34.261Z,2.20
2022-10-15T00:47:40.155Z,1.88
2022-10-15T00:48:43.326Z,2.15
2022-10-15T00:49:49.004Z,2.63
2022-10-15T00:50:51.994Z,2.25
2022-10-15T00:51:59.138Z,2.40
2022-10-15T00:53:06.661Z,2.40
2022-10-15T00:54:09.993Z,2.08
2022-10-15T00:55:16.362Z,2.30
2022-10-15T00:56:22.142Z,2.03
2022-10-15T00:57:26.130Z,1.90
2022-10-15T00:58:31.670Z,2.25
2022-10-15T00:59:39.962Z,2.40
2022-10-15T01:00:43.868Z,2.13
2022-10-15T01:01:46.979Z,2.42
2022-10-15T01:02:48.877Z,2.13
2022-10-15T01:03:51.933Z,2.20
2022-10-15T01:04:55.065Z,2.00
2022-10-15T01:05:58.209Z,2.13
2022-10-15T01:07:00.282Z,2.28
2022-10-15T01:08:03.199Z,2.20
2022-10-15T01:09:06.217Z,1.85
2022-10-15T01:10:11.697Z,2.40
2022-10-15T01:11:30.770Z,2.47
2022-10-15T01:12:49.541Z,1.85
2022-10-15T01:14:00.597Z,2.60
2022-10-15T01:15:11.022Z,2.53
2022-10-15T01:16:24.061Z,1.83
2022-10-15T01:17:30.402Z,2.22
2022-10-15T01:18:37.227Z,2.15
2022-10-15T01:20:00.078Z,2.30
2022-10-15T01:21:13.502Z,2.17
2022-10-15T01:22:24.278Z,2.42
2022-10-15T01:24:03.548Z,3.03
2022-10-15T01:25:22.251Z,2.08
2022-10-15T01:27:00.158Z,2.00
2022-10-15T01:28:17.937Z,2.22
2022-10-15T01:29:32.248Z,2.17
2022-10-15T01:30:40.395Z,2.25
2022-10-15T01:31:47.308Z,2.15
2022-10-15T01:33:08.170Z,3.08
2022-10-15T01:35:36.005Z,1.85
2022-10-15T01:36:47.101Z,2.30
2022-10-15T01:37:55.994Z,2.30
2022-10-15T01:39:02.121Z,2.35
2022-10-15T01:40:08.266Z,2.53
2022-10-15T01:41:15.598Z,2.10
2022-10-15T01:42:23.667Z,2.53
2022-10-15T01:43:32.708Z,2.30
2022-10-15T01:44:39.687Z,2.10
2022-10-15T01:45:49.558Z,2.35
2022-10-15T01:46:57.543Z,2.40
2022-10-15T01:48:04.433Z,2.58
2022-10-15T01:49:08.706Z,2.75
2022-10-15T01:50:15.272Z,1.98
2022-10-15T01:51:19.408Z,2.08
2022-10-15T01:53:53.722Z,2.20
2022-10-15T01:54:57.490Z,2.15
2022-10-15T01:56:02.458Z,2.47
2022-10-15T01:57:06.633Z,2.22
2022-10-15T01:58:09.985Z,2.22
2022-10-15T01:59:12.994Z,2.10
2022-10-15T02:00:15.811Z,2.08
2022-10-15T02:01:20.141Z,1.98
2022-10-15T02:02:22.380Z,1.95
2022-10-15T02:03:26.078Z,1.60
2022-10-15T02:04:29.550Z,1.73
2022-10-15T02:05:40.389Z,1.95
2022-10-15T02:06:48.551Z,1.73
2022-10-15T02:08:04.497Z,1.90
2022-10-15T02:09:16.436Z,1.75
2022-10-15T02:10:26.198Z,1.40
2022-10-15T02:11:30.682Z,1.63
2022-10-15T02:12:44.700Z,1.50
2022-10-15T02:13:53.665Z,1.80
2022-10-15T02:15:03.494Z,1.63
2022-10-15T02:16:13.937Z,2.13
2022-10-15T02:17:22.014Z,1.98
2022-10-15T02:18:32.102Z,1.90
2022-10-15T02:19:43.345Z,1.63
2022-10-15T02:20:51.909Z,1.67
2022-10-15T02:22:01.650Z,1.33
2022-10-15T02:23:08.273Z,1.70
2022-10-15T02:24:16.481Z,1.70
2022-10-15T02:25:22.464Z,1.33
2022-10-15T02:26:26.810Z,1.35
2022-10-15T02:27:30.409Z,1.63
2022-10-15T02:28:36.042Z,1.30
2022-10-15T02:29:40.009Z,1.20
2022-10-15T02:30:45.218Z,1.20
2022-10-15T02:31:49.867Z,1.20
2022-10-15T02:32:58.417Z,1.17
2022-10-15T02:34:04.990Z,1.38
2022-10-15T02:35:09.720Z,1.60
2022-10-15T02:36:12.936Z,1.02
2022-10-15T02:37:18.365Z,1.10
2022-10-15T02:38:23.141Z,1.40
2022-10-15T02:39:26.642Z,1.13
2022-10-15T02:40:32.693Z,1.30
2022-10-15T02:41:36.813Z,1.20
2022-10-15T02:42:38.770Z,1.42
2022-10-15T02:43:42.402Z,0.90
2022-10-15T02:44:44.356Z,1.30
2022-10-15T02:45:47.305Z,0.80
2022-10-15T02:46:49.461Z,1.10
2022-10-15T02:47:53.767Z,1.17
2022-10-15T02:48:55.715Z,0.93
2022-10-15T02:49:58.642Z,0.95
2022-10-15T02:51:00.602Z,0.85
2022-10-15T02:52:03.572Z,0.90
2022-10-15T02:53:05.993Z,0.80
2022-10-15T02:54:09.395Z,1.30
2022-10-15T02:55:11.351Z,0.60
2022-10-15T02:56:14.306Z,1.17
2022-10-15T02:57:16.242Z,0.70
2022-10-15T02:58:19.174Z,1.02
2022-10-15T02:59:21.934Z,0.90
2022-10-15T03:00:24.945Z,0.82
2022-10-15T03:01:27.060Z,0.77
2022-10-15T03:02:30.036Z,0.95
2022-10-15T03:03:33.892Z,0.80
2022-10-15T03:04:36.802Z,0.85
2022-10-15T03:05:38.808Z,0.70
2022-10-15T03:06:41.809Z,0.60
2022-10-15T03:07:43.714Z,0.90
2022-10-15T03:08:46.628Z,1.00
2022-10-15T03:09:48.531Z,0.80
2022-10-15T03:10:51.717Z,0.77
2022-10-15T03:11:53.681Z,0.88
2022-10-15T03:12:56.622Z,0.93
2022-10-15T03:13:58.542Z,1.02
2022-10-15T03:15:01.480Z,0.75
2022-10-15T03:16:05.451Z,0.85
2022-10-15T03:17:08.694Z,0.73
2022-10-15T03:18:10.625Z,0.60
2022-10-15T03:19:14.906Z,0.80
2022-10-15T03:20:16.876Z,0.50
2022-10-15T03:21:19.779Z,0.60
2022-10-15T03:22:21.706Z,0.70
2022-10-15T03:23:25.591Z,0.70
2022-10-15T03:24:27.641Z,0.82
2022-10-15T03:25:30.739Z,0.57
2022-10-15T03:26:32.646Z,0.50
2022-10-15T03:27:35.550Z,0.65
2022-10-15T03:28:37.524Z,0.68
2022-10-15T03:29:40.487Z,0.70
2022-10-15T03:30:46.596Z,0.60
2022-10-15T03:31:49.856Z,0.80
2022-10-15T03:32:51.775Z,0.73
2022-10-15T03:33:54.702Z,0.70
2022-10-15T03:34:57.966Z,0.70
2022-10-15T03:36:00.886Z,1.10
2022-10-15T03:37:03.825Z,0.70
2022-10-15T03:38:06.053Z,0.55
2022-10-15T03:39:09.025Z,0.63
2022-10-15T03:40:13.646Z,1.00
2022-10-15T03:41:17.574Z,0.70
2022-10-15T03:42:19.485Z,0.63
2022-10-15T03:43:25.728Z,0.77
2022-10-15T03:44:27.677Z,0.70
2022-10-15T03:45:30.626Z,0.73
2022-10-15T03:46:33.622Z,0.70
2022-10-15T03:47:35.609Z,0.70
2022-10-15T03:48:39.017Z,0.70
2022-10-15T03:49:40.921Z,0.60
2022-10-15T03:50:46.204Z,0.45
2022-10-15T03:51:48.133Z,0.75
2022-10-15T03:52:51.031Z,0.60
2022-10-15T03:53:53.205Z,0.50
2022-10-15T03:54:56.131Z,0.52
2022-10-15T03:56:03.841Z,0.60
2022-10-15T03:57:06.757Z,0.50
2022-10-15T03:58:08.718Z,0.70
2022-10-15T03:59:11.646Z,0.75
2022-10-15T04:00:14.917Z,0.80
2022-10-15T04:01:19.622Z,0.60
2022-10-15T04:02:22.346Z,0.55
2022-10-15T04:03:25.507Z,0.77
2022-10-15T04:04:27.422Z,0.60
2022-10-15T04:05:30.362Z,0.80
2022-10-15T04:06:34.518Z,0.50
2022-10-15T04:07:37.474Z,0.57
2022-10-15T04:08:39.516Z,0.60
2022-10-15T04:09:42.470Z,0.80
2022-10-15T04:10:44.466Z,0.60
2022-10-15T04:11:47.397Z,0.65
2022-10-15T04:12:49.314Z,0.60
2022-10-15T04:13:52.273Z,0.63
2022-10-15T04:14:54.189Z,0.60
2022-10-15T04:15:57.115Z,0.70
2022-10-15T04:16:59.093Z,0.50
2022-10-15T04:18:02.010Z,0.63
2022-10-15T04:19:07.292Z,0.70
2022-10-15T04:20:13.361Z,0.40
2022-10-15T04:21:15.330Z,0.70
2022-10-15T04:22:19.831Z,0.40
2022-10-15T04:23:21.761Z,0.50
2022-10-15T04:24:24.874Z,0.50
2022-10-15T04:25:26.823Z,0.70
2022-10-15T04:26:29.802Z,0.50
2022-10-15T04:27:31.858Z,0.70
2022-10-15T04:28:34.880Z,0.60
2022-10-15T04:29:36.882Z,0.73
2022-10-15T04:30:39.805Z,0.80
2022-10-15T04:31:41.847Z,0.90
2022-10-15T04:32:44.798Z,0.60
2022-10-15T04:33:49.210Z,0.60
2022-10-15T04:34:52.112Z,0.70
2022-10-15T04:36:01.371Z,0.85
2022-10-15T04:37:04.284Z,0.60
2022-10-15T04:38:07.566Z,0.63
2022-10-15T04:39:13.712Z,0.70
2022-10-15T04:40:17.057Z,0.70
2022-10-15T04:41:20.044Z,0.70
2022-10-15T04:42:22.016Z,0.50
2022-10-15T04:43:24.918Z,0.60
2022-10-15T04:44:27.511Z,0.57
2022-10-15T04:45:30.410Z,0.60
2022-10-15T04:46:32.426Z,0.77
2022-10-15T04:47:35.329Z,0.50
2022-10-15T04:48:42.080Z,0.68
2022-10-15T04:49:46.273Z,0.80
2022-10-15T04:50:48.173Z,0.70
2022-10-15T04:51:51.076Z,0.60
2022-10-15T04:52:52.989Z,0.68
2022-10-15T04:53:57.696Z,0.68
2022-10-15T04:54:59.681Z,0.75
2022-10-15T04:56:04.143Z,0.70
2022-10-15T04:57:06.318Z,1.27
2022-10-15T04:58:09.267Z,0.88
2022-10-15T04:59:11.408Z,0.77
2022-10-15T05:00:15.394Z,0.70
2022-10-15T05:01:19.862Z,0.65
2022-10-15T05:02:22.830Z,0.70
2022-10-15T05:03:24.912Z,0.65
2022-10-15T05:04:28.010Z,1.00
2022-10-15T05:05:29.924Z,1.15
2022-10-15T05:06:33.729Z,1.02
2022-10-15T05:07:35.658Z,1.15
2022-10-15T05:08:41.796Z,1.35
2022-10-15T05:09:46.511Z,1.23
2022-10-15T05:10:49.600Z,1.90
2022-10-15T05:11:51.653Z,1.80
2022-10-15T05:12:56.729Z,1.70
2022-10-15T05:13:59.119Z,1.10
2022-10-15T05:15:02.046Z,1.45
2022-10-15T05:16:11.138Z,1.17
2022-10-15T05:17:14.040Z,1.80
2022-10-15T05:18:16.184Z,1.60
2022-10-15T05:19:19.100Z,1.40
2022-10-15T05:20:21.086Z,1.05
2022-10-15T05:21:24.258Z,1.63
2022-10-15T05:22:26.512Z,1.17
2022-10-15T05:23:29.689Z,0.90
2022-10-15T05:24:31.644Z,1.08
2022-10-15T05:25:35.899Z,1.30
2022-10-15T05:26:37.841Z,0.95
2022-10-15T05:27:40.758Z,0.80
2022-10-15T05:28:42.944Z,0.75
2022-10-15T05:29:45.861Z,0.73
2022-10-15T05:30:47.770Z,1.25
2022-10-15T05:31:51.902Z,0.70
2022-10-15T05:32:54.480Z,1.00
2022-10-15T05:33:57.644Z,0.60
2022-10-15T05:34:59.574Z,0.80
2022-10-15T05:36:12.951Z,0.85
2022-10-15T05:37:14.878Z,0.57
2022-10-15T05:38:17.793Z,0.60
2022-10-15T05:39:20.825Z,0.60
2022-10-15T05:40:22.728Z,0.70
2022-10-15T05:41:27.831Z,0.70
2022-10-15T05:42:29.749Z,0.82
2022-10-15T05:43:35.048Z,0.88
2022-10-15T05:44:39.420Z,0.80
2022-10-15T05:45:42.670Z,0.95
2022-10-15T05:46:44.594Z,1.15
2022-10-15T05:47:47.494Z,0.75
2022-10-15T05:48:49.986Z,0.90
2022-10-15T05:49:52.942Z,0.70
2022-10-15T05:51:00.063Z,0.60
2022-10-15T05:52:02.979Z,0.77
2022-10-15T05:53:04.907Z,0.80
2022-10-15T05:54:07.794Z,0.60
2022-10-15T05:55:10.009Z,0.82
2022-10-15T05:56:13.385Z,0.73
2022-10-15T05:57:16.677Z,0.80
2022-10-15T05:58:19.575Z,0.90
2022-10-15T05:59:21.482Z,0.75
2022-10-15T06:00:24.618Z,0.88
2022-10-15T06:01:26.517Z,0.70
2022-10-15T06:02:29.841Z,0.80
2022-10-15T06:03:32.446Z,0.50
2022-10-15T06:04:35.961Z,0.90
2022-10-15T06:05:38.129Z,0.90
2022-10-15T06:06:41.037Z,1.10
2022-10-15T06:07:42.989Z,0.75
2022-10-15T06:08:46.313Z,0.75
2022-10-15T06:09:48.259Z,0.60
2022-10-15T06:10:51.721Z,0.80
2022-10-15T06:11:53.675Z,0.70
2022-10-15T06:12:58.263Z,0.75
2022-10-15T06:14:00.184Z,1.00
2022-10-15T06:15:03.095Z,1.02
2022-10-15T06:16:05.523Z,1.05
2022-10-15T06:17:08.452Z,1.35
2022-10-15T06:18:11.334Z,0.80
2022-10-15T06:19:15.179Z,0.68
2022-10-15T06:20:17.236Z,1.20
2022-10-15T06:21:20.282Z,1.10
2022-10-15T06:22:22.242Z,0.90
2022-10-15T06:23:25.266Z,0.90
2022-10-15T06:24:27.202Z,1.08
2022-10-15T06:25:30.125Z,1.20
2022-10-15T06:26:32.078Z,0.93
2022-10-15T06:27:34.990Z,1.25
2022-10-15T06:28:39.173Z,1.00
2022-10-15T06:29:42.144Z,0.90
2022-10-15T06:30:44.621Z,1.00
2022-10-15T06:31:47.557Z,1.00
2022-10-15T06:32:50.023Z,1.15
2022-10-15T06:33:52.937Z,1.20
2022-10-15T06:34:54.869Z,1.33
2022-10-15T06:36:02.607Z,1.15
2022-10-15T06:37:04.606Z,1.20
2022-10-15T06:38:07.603Z,1.40
2022-10-15T06:39:10.965Z,2.45
2022-10-15T06:40:14.043Z,1.65
2022-10-15T06:41:17.560Z,1.95
2022-10-15T06:42:19.521Z,1.42
2022-10-15T06:43:22.537Z,1.50
2022-10-15T06:44:25.846Z,1.40
2022-10-15T06:45:28.751Z,1.60
2022-10-15T06:46:30.656Z,1.20
2022-10-15T06:47:33.767Z,1.75
2022-10-15T06:48:35.681Z,2.20
2022-10-15T06:49:38.785Z,2.30
2022-10-15T06:50:40.910Z,2.45
2022-10-15T06:51:44.094Z,3.30
2022-10-15T06:52:46.053Z,15.73
2022-10-15T06:53:49.049Z,22.02
2022-10-15T06:54:50.969Z,22.00
2022-10-15T06:55:57.922Z,16.65
2022-10-15T06:56:59.829Z,13.40
2022-10-15T06:58:02.957Z,13.18
2022-10-15T06:59:05.682Z,9.48
2022-10-15T07:00:11.186Z,7.05
2022-10-15T07:01:13.168Z,6.07
2022-10-15T07:02:17.694Z,4.32
2022-10-15T07:03:19.633Z,3.33
2022-10-15T07:04:23.978Z,2.53
2022-10-15T07:05:26.742Z,1.52
2022-10-15T07:06:29.666Z,1.85
2022-10-15T07:07:31.568Z,1.60
2022-10-15T07:08:35.131Z,2.00
2022-10-15T07:09:37.102Z,2.80
2022-10-15T07:10:40.059Z,4.00
2022-10-15T07:11:42.387Z,4.70
2022-10-15T07:12:45.305Z,3.60
2022-10-15T07:13:47.226Z,4.10
2022-10-15T07:14:50.155Z,3.90
2022-10-15T07:15:55.951Z,3.10
2022-10-15T07:16:59.404Z,2.60
2022-10-15T07:18:01.704Z,2.25
2022-10-15T07:19:04.820Z,2.10
2022-10-15T07:20:07.918Z,2.60
2022-10-15T07:21:12.855Z,2.70
2022-10-15T07:22:14.841Z,1.95
2022-10-15T07:23:17.749Z,1.90
2022-10-15T07:24:19.646Z,1.75
2022-10-15T07:25:23.153Z,1.67
2022-10-15T07:26:25.161Z,1.83
2022-10-15T07:27:28.074Z,1.70
2022-10-15T07:28:30.337Z,1.67
2022-10-15T07:29:33.399Z,2.83
2022-10-15T07:30:35.319Z,4.47
2022-10-15T07:31:40.107Z,4.38
2022-10-15T07:32:44.468Z,4.53
2022-10-15T07:33:49.370Z,3.38
2022-10-15T07:34:51.326Z,7.00
2022-10-15T07:35:54.282Z,9.13
2022-10-15T07:36:56.189Z,8.98
2022-10-15T07:38:01.943Z,7.85
2022-10-15T07:39:04.938Z,6.22
2022-10-15T07:40:07.951Z,4.10
2022-10-15T07:41:11.975Z,4.15
2022-10-15T07:42:14.077Z,3.33
2022-10-15T07:43:17.293Z,3.35
2022-10-15T07:44:20.538Z,2.70
2022-10-15T07:45:23.081Z,1.92
2022-10-15T07:46:26.538Z,2.20
2022-10-15T07:47:29.820Z,2.45
2022-10-15T07:48:33.150Z,2.10
2022-10-15T07:49:35.163Z,1.90
2022-10-15T07:50:40.341Z,1.55
2022-10-15T07:51:43.652Z,1.15
2022-10-15T07:52:46.625Z,1.10
2022-10-15T07:53:48.582Z,1.55
2022-10-15T07:54:51.571Z,1.20
2022-10-15T07:55:53.971Z,1.10
2022-10-15T07:56:56.866Z,0.90
2022-10-15T07:57:59.159Z,1.30
2022-10-15T07:59:02.067Z,1.08
2022-10-15T08:00:05.441Z,1.55
2022-10-15T08:01:10.303Z,1.40
2022-10-15T08:02:15.885Z,1.65
2022-10-15T08:03:20.188Z,1.50
2022-10-15T08:04:23.177Z,1.50
2022-10-15T08:05:25.077Z,1.50
2022-10-15T08:06:28.002Z,1.45
2022-10-15T08:07:29.954Z,1.42
2022-10-15T08:08:34.593Z,1.35
2022-10-15T08:09:36.669Z,1.58
2022-10-15T08:10:39.582Z,1.75
2022-10-15T08:11:41.623Z,9.15
2022-10-15T08:12:44.666Z,15.57
2022-10-15T08:13:48.138Z,11.93
2022-10-15T08:14:51.309Z,8.10
2022-10-15T08:15:56.330Z,7.15
2022-10-15T08:17:03.229Z,4.32
2022-10-15T08:18:05.702Z,2.35
2022-10-15T08:19:15.288Z,2.67
2022-10-15T08:20:17.244Z,1.85
2022-10-15T08:21:20.473Z,1.70
2022-10-15T08:22:23.040Z,3.40
2022-10-15T08:23:26.579Z,1.92
2022-10-15T08:24:30.126Z,1.60
2022-10-15T08:25:33.228Z,1.30
2022-10-15T08:26:35.902Z,1.50
2022-10-15T08:27:38.790Z,1.33
2022-10-15T08:28:41.068Z,1.00
2022-10-15T08:29:44.004Z,1.10
2022-10-15T08:30:45.921Z,1.00
2022-10-15T08:31:49.326Z,0.85
2022-10-15T08:32:51.244Z,0.70
2022-10-15T08:33:54.451Z,0.50
2022-10-15T08:34:57.753Z,0.50
2022-10-15T08:36:00.653Z,0.50
2022-10-15T08:37:03.157Z,0.50
2022-10-15T08:38:06.615Z,0.50
2022-10-15T08:39:10.128Z,0.50
2022-10-15T08:40:14.856Z,0.52
2022-10-15T08:41:24.618Z,0.40
2022-10-15T08:42:31.899Z,0.40
2022-10-15T08:43:38.266Z,0.50
2022-10-15T08:44:44.417Z,0.60
2022-10-15T08:45:48.846Z,0.50
2022-10-15T08:46:54.244Z,0.50
2022-10-15T08:48:03.841Z,0.50
2022-10-15T08:49:08.348Z,0.60
2022-10-15T08:50:25.837Z,0.60
2022-10-15T08:51:35.217Z,0.88
2022-10-15T08:52:42.501Z,0.65
2022-10-15T08:53:49.624Z,1.00
2022-10-15T08:54:52.142Z,0.80
2022-10-15T08:55:59.388Z,0.80
2022-10-15T08:57:15.394Z,0.75
2022-10-15T08:58:25.470Z,0.70
2022-10-15T08:59:33.381Z,0.60
2022-10-15T09:00:42.266Z,0.50
2022-10-15T09:01:51.983Z,0.50
2022-10-15T09:03:02.857Z,0.63
2022-10-15T09:04:23.837Z,0.40
2022-10-15T09:05:35.468Z,0.60
2022-10-15T09:06:38.782Z,0.50
2022-10-15T09:07:50.809Z,0.43
2022-10-15T09:09:07.630Z,0.52
2022-10-15T09:10:16.742Z,0.40
2022-10-15T09:11:41.490Z,0.57
2022-10-15T09:12:52.845Z,0.40
2022-10-15T09:13:56.520Z,0.50
2022-10-15T09:15:00.758Z,0.45
2022-10-15T09:16:11.745Z,0.60
2022-10-15T09:17:20.683Z,0.60
2022-10-15T09:18:25.898Z,0.50
2022-10-15T09:19:29.933Z,0.50
2022-10-15T09:20:36.965Z,0.70
2022-10-15T09:21:39.076Z,0.60
2022-10-15T09:22:42.048Z,0.50
2022-10-15T09:23:45.391Z,0.50
2022-10-15T09:24:47.541Z,0.65
2022-10-15T09:25:58.092Z,0.50
2022-10-15T09:27:07.768Z,0.40
2022-10-15T09:28:11.351Z,0.43
2022-10-15T09:29:22.128Z,0.52
2022-10-15T09:30:30.917Z,0.50
2022-10-15T09:31:39.828Z,0.60
2022-10-15T09:32:47.543Z,0.50
2022-10-15T09:33:56.754Z,0.70
2022-10-15T09:35:09.995Z,0.60
2022-10-15T09:36:36.589Z,0.60
2022-10-15T09:37:48.681Z,0.60
2022-10-15T09:39:04.358Z,0.50
2022-10-15T09:40:28.365Z,0.75
2022-10-15T09:41:43.794Z,0.50
2022-10-15T09:42:46.051Z,0.70
2022-10-15T09:43:52.225Z,0.70
2022-10-15T09:44:58.698Z,0.85
2022-10-15T09:46:00.797Z,0.60
2022-10-15T09:47:15.069Z,0.60
2022-10-15T09:48:20.631Z,1.25
2022-10-15T09:49:25.722Z,0.60
2022-10-15T09:50:38.331Z,0.60
2022-10-15T09:51:48.566Z,0.85
2022-10-15T09:53:06.441Z,0.50
2022-10-15T09:54:17.396Z,0.68
2022-10-15T09:55:33.974Z,0.55
2022-10-15T09:56:42.694Z,0.55
2022-10-15T09:57:52.248Z,0.70
2022-10-15T09:58:57.527Z,0.50
2022-10-15T10:00:01.396Z,0.60
2022-10-15T10:01:05.993Z,0.68
2022-10-15T10:02:22.173Z,0.80
2022-10-15T10:03:26.134Z,0.80
2022-10-15T10:04:30.822Z,0.80
2022-10-15T10:05:35.522Z,0.77
2022-10-15T10:06:47.552Z,0.60
2022-10-15T10:07:49.573Z,0.77
2022-10-15T10:08:55.561Z,0.80
2022-10-15T10:10:00.034Z,0.75
2022-10-15T10:11:05.108Z,0.60
2022-10-15T10:12:17.545Z,0.68
2022-10-15T10:13:24.675Z,0.60
2022-10-15T10:14:30.973Z,0.57
2022-10-15T10:15:35.062Z,0.50
2022-10-15T10:17:17.814Z,0.60
2022-10-15T10:18:21.541Z,0.60
2022-10-15T10:19:24.434Z,0.60
2022-10-15T10:20:27.241Z,0.63
2022-10-15T10:21:32.592Z,0.80
2022-10-15T10:22:44.812Z,0.60
2022-10-15T10:23:49.654Z,0.70
2022-10-15T10:24:52.565Z,0.52
2022-10-15T10:25:56.673Z,0.80
2022-10-15T10:27:00.617Z,0.60
2022-10-15T10:28:15.310Z,0.60
2022-10-15T10:29:33.453Z,0.70
2022-10-15T10:30:43.182Z,0.80
2022-10-15T10:31:45.245Z,0.65
2022-10-15T10:32:48.906Z,0.55
2022-10-15T10:33:52.262Z,0.80
2022-10-15T10:34:55.935Z,0.68
2022-10-15T10:35:59.030Z,0.60
2022-10-15T10:37:04.922Z,0.60
2022-10-15T10:38:20.793Z,0.60
2022-10-15T10:39:27.202Z,0.60
2022-10-15T10:40:33.166Z,0.60
2022-10-15T10:41:52.366Z,0.70
2022-10-15T10:43:11.529Z,1.77
2022-10-15T10:44:27.646Z,2.75
2022-10-15T10:45:29.927Z,0.80
2022-10-15T10:46:32.855Z,0.60
2022-10-15T10:47:38.844Z,0.68
2022-10-15T10:48:43.893Z,0.70
2022-10-15T10:49:47.440Z,0.70
2022-10-15T10:50:50.405Z,0.70
2022-10-15T10:51:52.330Z,1.02
2022-10-15T10:52:55.287Z,0.90
2022-10-15T10:54:01.413Z,0.65
2022-10-15T10:55:05.955Z,0.70
2022-10-15T10:56:11.557Z,0.95
2022-10-15T10:57:18.994Z,0.80
2022-10-15T10:58:26.975Z,0.60
2022-10-15T10:59:36.591Z,0.70
2022-10-15T11:00:41.852Z,0.80
2022-10-15T11:01:45.099Z,0.60
2022-10-15T11:02:47.205Z,0.60
2022-10-15T11:03:51.346Z,0.80
2022-10-15T11:04:53.375Z,0.70
2022-10-15T11:06:02.873Z,0.70
2022-10-15T11:07:07.681Z,0.85
2022-10-15T11:08:21.038Z,0.85
2022-10-15T11:09:41.706Z,0.80
2022-10-15T11:10:52.251Z,0.80
2022-10-15T11:12:09.329Z,0.75
2022-10-15T11:13:31.459Z,0.95
2022-10-15T11:14:46.183Z,0.55
2022-10-15T11:15:54.896Z,0.70
2022-10-15T11:17:04.673Z,0.70
2022-10-15T11:18:38.032Z,0.70
2022-10-15T11:21:19.161Z,0.68
2022-10-15T11:22:42.251Z,0.80
2022-10-15T11:24:06.556Z,0.55
2022-10-15T11:25:21.152Z,0.82
2022-10-15T11:26:58.710Z,0.70
2022-10-15T11:28:14.095Z,0.68
2022-10-15T11:29:21.149Z,0.63
2022-10-15T11:30:50.458Z,0.60
2022-10-15T11:32:03.028Z,0.60
2022-10-15T11:33:29.598Z,0.60
2022-10-15T11:34:44.918Z,0.70
2022-10-15T11:35:53.958Z,0.77
2022-10-15T11:37:11.340Z,0.70
2022-10-15T11:38:22.359Z,0.70
2022-10-15T11:39:40.630Z,0.60
2022-10-15T11:40:59.141Z,0.60
2022-10-15T11:42:09.908Z,0.65
2022-10-15T11:43:23.177Z,1.25
2022-10-15T11:44:35.909Z,0.55
2022-10-15T11:46:00.378Z,0.68
2022-10-15T11:47:23.596Z,0.60
2022-10-15T11:48:40.709Z,0.70
2022-10-15T11:49:56.246Z,1.50
2022-10-15T11:51:04.160Z,0.80
2022-10-15T11:52:23.630Z,0.70
2022-10-15T11:53:50.079Z,0.70
2022-10-15T11:55:03.531Z,0.80
2022-10-15T11:56:14.192Z,0.65
2022-10-15T11:57:20.262Z,0.65
2022-10-15T11:58:32.616Z,0.75
2022-10-15T11:59:41.643Z,0.60
2022-10-15T12:00:49.524Z,0.70
2022-10-15T12:01:56.128Z,0.57
2022-10-15T12:03:05.173Z,0.98
2022-10-15T12:04:13.625Z,0.73
2022-10-15T12:05:20.619Z,0.63
2022-10-15T12:06:27.533Z,0.60
2022-10-15T12:07:34.376Z,0.60
2022-10-15T12:08:39.762Z,0.70
2022-10-15T12:09:46.362Z,0.60
2022-10-15T12:11:08.236Z,0.80
2022-10-15T12:12:20.358Z,0.70
2022-10-15T12:13:32.698Z,0.50
2022-10-15T12:14:40.077Z,0.60
2022-10-15T12:15:48.692Z,0.80
2022-10-15T12:16:59.426Z,0.60
2022-10-15T12:18:11.107Z,0.70
2022-10-15T12:19:18.231Z,0.70
2022-10-15T12:20:23.199Z,0.60
2022-10-15T12:21:33.000Z,0.70
2022-10-15T12:22:39.684Z,0.60
2022-10-15T12:23:42.371Z,0.50
2022-10-15T12:24:53.957Z,0.60
2022-10-15T12:25:56.934Z,0.95
2022-10-15T12:27:16.833Z,0.90
2022-10-15T12:28:25.067Z,0.60
2022-10-15T12:29:28.148Z,0.55
2022-10-15T12:30:34.395Z,0.47
2022-10-15T12:31:52.007Z,0.70
2022-10-15T12:32:54.486Z,0.75
2022-10-15T12:33:58.860Z,1.02
2022-10-15T12:35:02.938Z,0.95
2022-10-15T12:36:10.598Z,0.80
2022-10-15T12:37:18.075Z,0.68
2022-10-15T12:38:27.409Z,0.52
2022-10-15T12:41:09.430Z,0.50
2022-10-15T12:42:22.233Z,0.60
2022-10-15T12:43:26.088Z,0.50
2022-10-15T12:44:31.082Z,0.60
2022-10-15T12:45:40.002Z,0.60
2022-10-15T12:46:43.880Z,0.60
2022-10-15T12:47:47.864Z,0.55
2022-10-15T12:48:54.027Z,0.50
2022-10-15T12:50:03.397Z,0.60
2022-10-15T12:51:39.710Z,0.40
2022-10-15T12:52:52.958Z,0.80
2022-10-15T12:53:58.337Z,0.57
2022-10-15T12:55:20.417Z,0.50
2022-10-15T12:56:25.165Z,0.40
2022-10-15T12:58:04.217Z,0.55
2022-10-15T12:59:30.850Z,0.50
2022-10-15T13:00:42.360Z,0.60
2022-10-15T13:01:51.650Z,0.60
2022-10-15T13:02:59.202Z,0.60
2022-10-15T13:04:02.631Z,0.63
2022-10-15T13:05:06.222Z,0.73
2022-10-15T13:06:33.948Z,0.60
2022-10-15T13:07:40.323Z,0.52
2022-10-15T13:08:46.554Z,0.90
2022-10-15T13:09:49.633Z,0.60
2022-10-15T13:10:54.686Z,0.70
2022-10-15T13:11:59.902Z,0.60
2022-10-15T13:13:05.886Z,0.55
2022-10-15T13:14:21.702Z,0.50
2022-10-15T13:15:26.872Z,0.50
2022-10-15T13:16:30.672Z,0.80
2022-10-15T13:17:32.689Z,0.50
2022-10-15T13:18:36.259Z,0.60
2022-10-15T13:19:40.689Z,0.70
2022-10-15T13:20:46.738Z,0.60
2022-10-15T13:21:54.697Z,0.60
2022-10-15T13:23:18.703Z,0.60
2022-10-15T13:24:40.536Z,0.60
2022-10-15T13:25:42.594Z,0.70
2022-10-15T13:26:45.654Z,0.85
2022-10-15T13:27:47.630Z,0.50
2022-10-15T13:28:54.992Z,0.60
2022-10-15T13:29:58.851Z,0.70
2022-10-15T13:31:04.473Z,0.50
2022-10-15T13:32:13.998Z,0.70
2022-10-15T13:33:17.046Z,0.50
2022-10-15T13:34:27.534Z,0.80
2022-10-15T13:35:32.732Z,0.50
2022-10-15T13:36:36.808Z,0.60
2022-10-15T13:37:40.969Z,0.60
2022-10-15T13:38:47.263Z,0.60
2022-10-15T13:39:52.183Z,0.68
2022-10-15T13:40:54.710Z,0.70
2022-10-15T13:42:08.594Z,0.57
2022-10-15T13:43:17.269Z,0.60
2022-10-15T13:44:23.441Z,0.68
2022-10-15T13:45:25.529Z,0.57
2022-10-15T13:46:31.645Z,0.70
2022-10-15T13:47:35.584Z,0.60
2022-10-15T13:49:45.925Z,0.70
2022-10-15T13:50:51.038Z,0.60
2022-10-15T13:51:54.004Z,0.60
2022-10-15T13:53:00.274Z,0.50
2022-10-15T13:54:08.418Z,0.50
2022-10-15T13:55:36.274Z,0.43
2022-10-15T13:56:46.513Z,0.93
2022-10-15T13:57:59.221Z,0.57
2022-10-15T13:59:03.547Z,0.60
2022-10-15T14:00:19.118Z,0.60
2022-10-15T14:01:23.174Z,0.60
2022-10-15T14:02:25.487Z,0.80
2022-10-15T14:03:30.820Z,0.60
2022-10-15T14:04:33.341Z,0.60
2022-10-15T14:05:36.732Z,0.50
2022-10-15T14:06:40.007Z,0.80
2022-10-15T14:07:42.013Z,0.93
2022-10-15T14:08:45.139Z,0.68
2022-10-15T14:09:47.680Z,0.65
2022-10-15T14:10:52.013Z,0.60
2022-10-15T14:11:56.782Z,0.60
2022-10-15T14:13:01.957Z,0.50
2022-10-15T14:14:04.890Z,0.50
2022-10-15T14:15:45.719Z,0.60
2022-10-15T14:16:49.493Z,0.50
2022-10-15T14:17:52.014Z,0.60
2022-10-15T14:18:57.369Z,0.60
2022-10-15T14:20:25.279Z,0.50
2022-10-15T14:21:28.914Z,0.60
2022-10-15T14:22:31.623Z,0.60
2022-10-15T14:23:34.562Z,0.60
2022-10-15T14:24:38.732Z,0.60
2022-10-15T14:25:41.410Z,0.60
2022-10-15T14:26:44.824Z,0.60
2022-10-15T14:27:46.910Z,0.60
2022-10-15T14:28:52.119Z,0.47
2022-10-15T14:29:56.438Z,0.70
2022-10-15T14:31:02.117Z,0.70
2022-10-15T14:32:22.546Z,0.93
2022-10-15T14:33:41.773Z,0.60
2022-10-15T14:34:44.705Z,0.50
2022-10-15T14:35:46.651Z,0.50
2022-10-15T14:36:49.599Z,0.70
2022-10-15T14:38:00.260Z,0.98
2022-10-15T14:39:28.956Z,0.73
2022-10-15T14:40:32.796Z,0.50
2022-10-15T14:41:35.746Z,0.60
2022-10-15T14:42:39.616Z,0.60
2022-10-15T14:43:42.549Z,0.70
2022-10-15T14:44:46.794Z,0.50
2022-10-15T14:45:59.095Z,0.60
2022-10-15T14:47:03.611Z,0.60
2022-10-15T14:48:12.055Z,0.60